Time;durP1;ratioP1;P1;durP2;ratioP2;P2;SDS_P1;SDS_P2;PMS_P1;PMS_P2;Temp;Humidity;BMP_temperature;BMP_pressure;BME280_temperature;BME280_humidity;BME280_pressure;Samples;Min_cycle;Max_cycle;Signal;HPM_P1;HPM_P2
2023/01/25 00:00:16;;;;;;;54.00;26.70;;;2.70;45.00;;;;;;5071100;28;20142;-72
2023/01/25 00:02:42;;;;;;;48.67;27.33;;;2.60;45.90;;;;;;5070544;28;20035;-71
2023/01/25 00:05:08;;;;;;;47.38;27.67;;;2.60;49.30;;;;;;5071355;28;20033;-70
2023/01/25 00:07:33;;;;;;;51.17;28.42;;;2.50;52.10;;;;;;5070446;28;20024;-70
2023/01/25 00:09:59;;;;;;;47.50;27.77;;;2.50;54.90;;;;;;5071112;28;20095;-70
2023/01/25 00:12:24;;;;;;;51.65;27.15;;;2.60;55.90;;;;;;5070814;28;20028;-71
2023/01/25 00:14:50;;;;;;;53.30;27.42;;;2.60;50.70;;;;;;5070355;28;20036;-72
2023/01/25 00:17:15;;;;;;;47.08;26.27;;;2.60;51.40;;;;;;5070243;28;20024;-72
2023/01/25 00:19:41;;;;;;;44.50;24.30;;;2.60;53.40;;;;;;5071085;28;20032;-72
2023/01/25 00:22:06;;;;;;;43.70;24.25;;;2.50;48.00;;;;;;5070769;28;20393;-72
2023/01/25 00:24:32;;;;;;;45.60;25.08;;;2.50;51.10;;;;;;5070960;28;20067;-71
2023/01/25 00:26:57;;;;;;;50.20;24.92;;;2.50;40.00;;;;;;5070198;28;20024;-71
2023/01/25 00:29:23;;;;;;;45.40;25.35;;;2.50;50.30;;;;;;5070311;28;20100;-72
2023/01/25 00:32:22;;;;;;;48.42;25.73;;;2.40;52.30;;;;;;5070637;28;20043;-72
2023/01/25 00:34:50;;;;;;;41.38;23.95;;;2.40;56.20;;;;;;5019296;28;20112;-72
2023/01/25 00:37:41;;;;;;;55.95;24.95;;;2.30;44.20;;;;;;5070314;28;20032;-72
2023/01/25 00:40:10;;;;;;;51.00;26.80;;;2.30;54.80;;;;;;5070918;28;20032;-72
2023/01/25 00:42:36;;;;;;;51.05;26.73;;;2.40;57.00;;;;;;5070190;28;20035;-71
2023/01/25 00:45:01;;;;;;;50.47;27.33;;;2.30;50.30;;;;;;5070446;28;20463;-71
2023/01/25 00:47:27;;;;;;;48.85;27.83;;;2.40;58.10;;;;;;5070105;28;20086;-71
2023/01/25 00:49:52;;;;;;;52.22;27.50;;;2.40;51.70;;;;;;5070569;28;20489;-70
2023/01/25 00:52:18;;;;;;;50.67;28.27;;;2.30;52.70;;;;;;5070340;28;20033;-71
2023/01/25 00:54:45;;;;;;;51.95;29.05;;;;;;;;;;5070117;28;20130;-71
2023/01/25 00:57:10;;;;;;;55.20;29.80;;;2.10;57.90;;;;;;5069975;28;20016;-72
2023/01/25 00:59:36;;;;;;;58.58;30.65;;;2.00;61.40;;;;;;5070521;28;20035;-72
2023/01/25 01:02:02;;;;;;;63.50;31.45;;;2.00;69.90;;;;;;5066818;28;20111;-71
2023/01/25 01:04:28;;;;;;;59.22;31.73;;;2.10;68.00;;;;;;5070039;28;20074;-71
2023/01/25 01:06:54;;;;;;;65.72;32.67;;;2.10;66.20;;;;;;5068513;28;20028;-71
2023/01/25 01:09:21;;;;;;;62.60;33.05;;;2.10;64.30;;;;;;5070204;28;20025;-71
2023/01/25 01:11:47;;;;;;;55.72;30.67;;;2.10;69.10;;;;;;5070442;28;20099;-71
2023/01/25 01:14:13;;;;;;;62.17;31.25;;;2.10;69.70;;;;;;5070423;28;20569;-71
2023/01/25 01:16:39;;;;;;;58.50;30.75;;;2.20;64.60;;;;;;5069690;28;20021;-71
2023/01/25 01:19:04;;;;;;;57.58;31.50;;;2.20;64.20;;;;;;5070247;28;20477;-72
2023/01/25 01:21:30;;;;;;;58.50;32.03;;;2.20;65.10;;;;;;5069602;28;20032;-71
2023/01/25 01:23:55;;;;;;;59.00;31.42;;;2.20;66.50;;;;;;5070357;28;20025;-72
2023/01/25 01:26:21;;;;;;;58.97;31.58;;;2.20;67.20;;;;;;5069863;28;20037;-70
2023/01/25 01:28:47;;;;;;;59.33;29.90;;;2.20;60.60;;;;;;5070768;28;20109;-70
2023/01/25 01:31:19;;;;;;;58.17;30.38;;;2.30;61.00;;;;;;5070404;28;20393;-71
2023/01/25 01:33:48;;;;;;;57.42;30.05;;;2.30;55.20;;;;;;5069878;28;20086;-72
2023/01/25 01:36:16;;;;;;;55.00;31.05;;;2.20;50.40;;;;;;5069887;28;20024;-71
2023/01/25 01:38:42;;;;;;;52.65;29.48;;;2.10;55.00;;;;;;5071553;28;20134;-71
2023/01/25 01:41:08;;;;;;;59.20;28.92;;;2.10;53.70;;;;;;5073891;28;20028;-71
2023/01/25 01:43:34;;;;;;;57.88;31.30;;;2.10;57.90;;;;;;5071597;28;20024;-71
2023/01/25 01:46:12;;;;;;;59.28;31.30;;;2.00;50.70;;;;;;5069115;28;20397;-70
2023/01/25 01:48:41;;;;;;;57.30;30.08;;;1.90;58.00;;;;;;5070009;28;20024;-71
2023/01/25 01:51:13;;;;;;;52.08;28.42;;;1.90;71.60;;;;;;5069984;28;20025;-71
2023/01/25 01:53:43;;;;;;;54.40;27.90;;;1.90;71.30;;;;;;5069963;28;20359;-72
2023/01/25 01:56:12;;;;;;;47.88;27.23;;;1.90;74.20;;;;;;5071214;28;20017;-72
2023/01/25 01:58:40;;;;;;;52.70;27.70;;;1.90;74.50;;;;;;5073591;28;20013;-71
2023/01/25 02:01:06;;;;;;;56.95;30.05;;;1.90;77.40;;;;;;5072848;28;20051;-71
2023/01/25 02:03:32;;;;;;;54.40;29.15;;;1.70;77.10;;;;;;5073499;28;20060;-71
2023/01/25 02:06:12;;;;;;;51.92;27.55;;;1.70;79.50;;;;;;5072832;28;20032;-71
2023/01/25 02:08:39;;;;;;;51.60;27.75;;;1.80;78.70;;;;;;5072080;28;20025;-70
2023/01/25 02:11:06;;;;;;;56.17;28.00;;;1.60;86.50;;;;;;5073317;28;20086;-71
2023/01/25 02:13:34;;;;;;;56.63;29.83;;;1.70;90.00;;;;;;5073558;28;20071;-72
2023/01/25 02:16:00;;;;;;;56.05;28.77;;;1.70;82.70;;;;;;5073053;28;20492;-71
2023/01/25 02:18:25;;;;;;;52.65;27.38;;;1.70;80.90;;;;;;5073663;28;20028;-70
2023/01/25 02:20:55;;;;;;;56.85;28.10;;;1.90;76.70;;;;;;5073149;28;20046;-71
2023/01/25 02:23:32;;;;;;;56.05;29.25;;;1.70;73.30;;;;;;5073181;28;20035;-73
2023/01/25 02:26:03;;;;;;;57.80;29.27;;;1.70;76.20;;;;;;5072027;28;20071;-73
2023/01/25 02:28:35;;;;;;;58.70;28.00;;;1.70;77.40;;;;;;5051045;28;20560;-73
2023/01/25 02:31:00;;;;;;;57.33;28.92;;;1.70;77.00;;;;;;5052891;28;20420;-73
2023/01/25 02:33:27;;;;;;;63.42;29.77;;;1.70;79.70;;;;;;5052781;28;20036;-73
2023/01/25 02:36:12;;;;;;;57.97;29.35;;;1.70;81.30;;;;;;5052156;28;20220;-72
2023/01/25 02:38:50;;;;;;;59.72;29.20;;;1.70;81.30;;;;;;5053212;28;20438;-72
2023/01/25 02:41:37;;;;;;;54.38;28.38;;;1.80;80.40;;;;;;5052521;28;20021;-73
2023/01/25 02:44:09;;;;;;;57.03;27.25;;;1.80;77.90;;;;;;5052934;28;20033;-73
2023/01/25 02:46:37;;;;;;;55.80;27.05;;;1.90;76.90;;;;;;5051978;28;20108;-73
2023/01/25 02:49:05;;;;;;;54.15;26.27;;;1.90;77.30;;;;;;5052831;28;20021;-73
2023/01/25 02:51:33;;;;;;;56.78;26.48;;;1.80;77.60;;;;;;5053052;28;20013;-73
2023/01/25 02:53:59;;;;;;;54.53;27.17;;;1.70;78.80;;;;;;5034668;28;20116;-73
2023/01/25 02:56:26;;;;;;;52.30;25.58;;;1.60;78.30;;;;;;5052518;28;20025;-73
2023/01/25 02:58:51;;;;;;;56.80;27.08;;;1.60;82.00;;;;;;5058561;28;20020;-78
2023/01/25 03:01:17;;;;;;;54.47;25.58;;;1.50;82.90;;;;;;5056845;28;20070;-72
2023/01/25 03:03:43;;;;;;;57.88;27.55;;;1.50;81.00;;;;;;5072306;28;20031;-71
2023/01/25 03:06:08;;;;;;;55.65;25.50;;;1.40;84.10;;;;;;5071133;28;20025;-72
2023/01/25 03:08:35;;;;;;;54.63;26.60;;;1.40;86.90;;;;;;5072368;28;20060;-72
2023/01/25 03:11:02;;;;;;;54.10;26.08;;;1.50;84.40;;;;;;5072152;28;20099;-72
2023/01/25 03:13:28;;;;;;;51.55;24.73;;;1.80;82.20;;;;;;5071952;28;20040;-73
2023/01/25 03:16:06;;;;;;;55.92;26.63;;;1.50;83.20;;;;;;5072672;28;20030;-73
2023/01/25 03:18:33;;;;;;;55.20;25.73;;;1.20;82.50;;;;;;5073133;28;20022;-73
2023/01/25 03:21:09;;;;;;;51.17;25.45;;;1.40;84.60;;;;;;5072429;28;20415;-72
2023/01/25 03:23:35;;;;;;;57.75;26.50;;;1.40;85.10;;;;;;5073715;28;20107;-73
2023/01/25 03:26:06;;;;;;;55.65;25.70;;;1.40;83.80;;;;;;5073306;28;20055;-73
2023/01/25 03:28:31;;;;;;;58.97;27.52;;;1.40;86.80;;;;;;5072940;28;20035;-73
2023/01/25 03:30:57;;;;;;;54.85;26.83;;;1.40;89.30;;;;;;5073283;28;20020;-73
2023/01/25 03:33:22;;;;;;;62.20;28.60;;;1.50;89.30;;;;;;5072162;28;20082;-73
2023/01/25 03:35:54;;;;;;;57.78;26.25;;;1.50;85.10;;;;;;5071325;28;20031;-73
2023/01/25 03:38:21;;;;;;;59.15;27.08;;;1.50;85.70;;;;;;5071945;28;20013;-73
2023/01/25 03:40:47;;;;;;;58.10;28.20;;;1.40;87.80;;;;;;5075357;28;20020;-73
2023/01/25 03:43:12;;;;;;;60.80;27.50;;;1.50;89.30;;;;;;5076840;28;20043;-75
2023/01/25 03:45:38;;;;;;;62.03;28.77;;;1.80;89.00;;;;;;5071656;28;20517;-73
2023/01/25 03:48:03;;;;;;;61.50;27.63;;;1.50;85.40;;;;;;5071421;28;20036;-73
2023/01/25 03:50:29;;;;;;;61.45;29.42;;;1.40;83.00;;;;;;5074619;28;20106;-75
2023/01/25 03:53:01;;;;;;;64.97;29.67;;;1.20;85.50;;;;;;5083482;28;20432;-76
2023/01/25 03:55:26;;;;;;;63.50;27.83;;;1.20;88.10;;;;;;5082944;28;20043;-74
2023/01/25 03:57:52;;;;;;;61.97;28.95;;;1.20;90.60;;;;;;5056702;28;20029;-74
2023/01/25 04:00:18;;;;;;;63.17;29.92;;;1.30;90.20;;;;;;5071450;28;20021;-75
2023/01/25 04:02:45;;;;;;;68.25;31.42;;;1.30;90.20;;;;;;5070972;28;20016;-76
2023/01/25 04:05:10;;;;;;;69.18;31.27;;;1.30;90.40;;;;;;5070987;28;20025;-75
2023/01/25 04:07:36;;;;;;;69.75;30.40;;;1.40;90.60;;;;;;5070401;28;20081;-72
2023/01/25 04:10:02;;;;;;;65.57;31.10;;;1.40;90.80;;;;;;5070898;28;20490;-73
2023/01/25 04:12:28;;;;;;;70.50;32.50;;;1.50;89.50;;;;;;5070181;28;20032;-74
2023/01/25 04:14:53;;;;;;;66.55;30.75;;;1.60;88.40;;;;;;5069312;28;20028;-75
2023/01/25 04:17:19;;;;;;;73.28;33.03;;;1.60;88.40;;;;;;5070465;28;20506;-74
2023/01/25 04:19:45;;;;;;;64.00;31.35;;;1.50;85.10;;;;;;5070416;28;20027;-74
2023/01/25 04:22:11;;;;;;;72.00;33.65;;;1.50;87.30;;;;;;5070846;28;20036;-74
2023/01/25 04:24:37;;;;;;;71.25;33.40;;;1.50;88.90;;;;;;5062970;28;20023;-74
2023/01/25 04:27:03;;;;;;;72.82;33.92;;;1.50;89.60;;;;;;5070203;28;20024;-72
2023/01/25 04:29:28;;;;;;;66.10;32.63;;;1.50;87.40;;;;;;5070356;28;20029;-74
2023/01/25 04:31:54;;;;;;;63.15;32.17;;;1.50;84.00;;;;;;5070437;28;20032;-73
2023/01/25 04:34:19;;;;;;;62.33;31.20;;;1.50;84.60;;;;;;5070764;28;20131;-73
2023/01/25 04:36:45;;;;;;;58.55;30.05;;;1.60;83.50;;;;;;5069755;28;20095;-73
2023/01/25 04:39:10;;;;;;;54.47;29.05;;;1.50;70.80;;;;;;5070168;28;20410;-74
2023/01/25 04:41:36;;;;;;;52.65;27.75;;;1.50;72.20;;;;;;5070675;28;20108;-72
2023/01/25 04:44:01;;;;;;;50.33;27.25;;;1.40;74.80;;;;;;5070629;28;20146;-73
2023/01/25 04:46:27;;;;;;;55.15;28.85;;;1.30;77.80;;;;;;5070071;28;20416;-74
2023/01/25 04:48:53;;;;;;;52.30;28.17;;;1.30;80.90;;;;;;5070646;28;20044;-74
2023/01/25 04:51:18;;;;;;;54.88;29.02;;;1.30;83.30;;;;;;5070106;28;20029;-73
2023/01/25 04:53:44;;;;;;;52.25;27.38;;;1.40;82.60;;;;;;5070564;28;20087;-73
2023/01/25 04:56:09;;;;;;;54.40;27.70;;;1.40;71.30;;;;;;5070147;28;20077;-73
2023/01/25 04:58:35;;;;;;;59.13;27.80;;;1.40;72.20;;;;;;5071159;28;20017;-74
2023/01/25 05:01:01;;;;;;;50.63;27.15;;;1.40;70.50;;;;;;5070340;28;20025;-71
2023/01/25 05:03:27;;;;;;;52.58;26.80;;;1.30;74.00;;;;;;5070066;28;20103;-74
2023/01/25 05:05:52;;;;;;;55.83;27.55;;;1.20;63.60;;;;;;5070106;28;20089;-73
2023/01/25 05:08:18;;;;;;;53.28;27.17;;;1.20;74.30;;;;;;5070766;28;20032;-73
2023/01/25 05:10:44;;;;;;;42.78;25.05;;;1.20;78.50;;;;;;5070390;28;20497;-73
2023/01/25 05:13:10;;;;;;;46.55;25.80;;;1.30;79.50;;;;;;5070456;28;20379;-72
2023/01/25 05:15:35;;;;;;;46.08;27.08;;;1.30;77.90;;;;;;5082454;28;20038;-70
2023/01/25 05:18:02;;;;;;;46.70;27.25;;;1.30;74.00;;;;;;5069843;28;20017;-70
2023/01/25 05:20:27;;;;;;;45.45;27.13;;;1.30;63.20;;;;;;5070660;28;20478;-71
2023/01/25 05:22:53;;;;;;;43.58;26.80;;;1.30;67.30;;;;;;5070381;28;20035;-70
2023/01/25 05:28:06;;;;;;;49.45;29.17;;;1.20;61.80;;;;;;5070354;28;20456;-70
2023/01/25 05:30:32;;;;;;;56.00;31.73;;;1.20;62.70;;;;;;5070939;28;20036;-72
2023/01/25 05:32:57;;;;;;;49.90;29.45;;;1.10;60.40;;;;;;5074259;28;20100;-73
2023/01/25 05:35:23;;;;;;;52.45;29.35;;;1.10;67.10;;;;;;5074063;28;20456;-72
2023/01/25 05:37:49;;;;;;;49.25;29.48;;;1.10;63.60;;;;;;5075264;28;20028;-74
2023/01/25 05:40:14;;;;;;;47.30;28.98;;;1.10;61.80;;;;;;5074705;28;20138;-73
2023/01/25 05:42:40;;;;;;;55.78;30.52;;;1.20;63.60;;;;;;5074259;28;20043;-75
2023/01/25 05:45:07;;;;;;;56.10;30.83;;;0.90;64.50;;;;;;5074354;28;20464;-74
2023/01/25 05:47:32;;;;;;;55.70;32.72;;;1.10;69.60;;;;;;5078946;28;20033;-73
2023/01/25 05:49:58;;;;;;;52.83;30.75;;;1.30;76.50;;;;;;5076621;28;20504;-72
2023/01/25 05:52:23;;;;;;;52.95;30.85;;;1.10;69.00;;;;;;5077883;28;20028;-74
2023/01/25 05:54:49;;;;;;;51.25;30.42;;;1.10;64.60;;;;;;5079585;28;20100;-74
2023/01/25 05:57:15;;;;;;;49.15;30.48;;;1.10;67.80;;;;;;5062421;28;20031;-74
2023/01/25 05:59:40;;;;;;;52.75;30.45;;;0.80;65.80;;;;;;5065593;28;20067;-74
2023/01/25 06:02:06;;;;;;;53.97;29.15;;;1.10;65.00;;;;;;5082971;28;20040;-74
2023/01/25 06:04:32;;;;;;;56.17;29.88;;;1.20;60.30;;;;;;5084158;28;20032;-74
2023/01/25 06:06:57;;;;;;;50.80;30.42;;;1.10;60.00;;;;;;5079646;28;20037;-72
2023/01/25 06:09:23;;;;;;;53.72;31.13;;;1.00;66.40;;;;;;5072827;28;20031;-72
2023/01/25 06:11:48;;;;;;;57.25;30.52;;;0.90;72.00;;;;;;5072957;28;20135;-73
2023/01/25 06:14:14;;;;;;;51.50;30.30;;;0.90;76.70;;;;;;5073357;28;20097;-74
2023/01/25 06:16:40;;;;;;;55.30;30.35;;;0.90;81.50;;;;;;5072770;28;20028;-72
2023/01/25 06:19:06;;;;;;;51.42;28.98;;;0.90;81.10;;;;;;5055468;28;20028;-72
2023/01/25 06:21:34;;;;;;;52.80;30.35;;;1.00;82.60;;;;;;5055077;28;20110;-74
2023/01/25 06:23:59;;;;;;;48.30;28.08;;;1.00;81.00;;;;;;5074438;28;20547;-74
2023/01/25 06:26:25;;;;;;;46.58;26.70;;;1.10;76.20;;;;;;5073972;28;20037;-72
2023/01/25 06:28:50;;;;;;;47.60;26.23;;;1.20;73.20;;;;;;5074997;28;20044;-74
2023/01/25 06:31:16;;;;;;;44.67;25.27;;;1.20;70.20;;;;;;5074275;28;20090;-73
2023/01/25 06:33:46;;;;;;;42.88;25.58;;;1.30;68.60;;;;;;5074338;28;20107;-71
2023/01/25 06:36:14;;;;;;;44.00;25.45;;;1.30;65.00;;;;;;5071630;28;20086;-72
2023/01/25 06:38:39;;;;;;;42.05;24.73;;;1.20;63.50;;;;;;5072795;28;20028;-73
2023/01/25 06:41:08;;;;;;;44.50;25.92;;;1.20;62.00;;;;;;5072387;28;20065;-73
2023/01/25 06:43:34;;;;;;;46.53;25.23;;;1.20;60.40;;;;;;5072803;28;20398;-73
2023/01/25 06:46:05;;;;;;;46.25;25.98;;;1.20;69.00;;;;;;5072591;28;20032;-74
2023/01/25 06:48:32;;;;;;;43.65;25.90;;;1.20;61.80;;;;;;5072486;28;20020;-73
2023/01/25 06:51:00;;;;;;;49.97;26.48;;;1.10;64.10;;;;;;5073958;28;20409;-73
2023/01/25 06:53:28;;;;;;;47.90;26.58;;;1.10;67.50;;;;;;5070324;28;20032;-72
2023/01/25 06:55:58;;;;;;;50.33;26.55;;;1.10;72.10;;;;;;5072752;28;20488;-73
2023/01/25 06:58:25;;;;;;;44.80;25.13;;;1.00;76.60;;;;;;5077219;28;20031;-73
2023/01/25 07:00:51;;;;;;;46.63;26.25;;;1.00;76.90;;;;;;5074991;28;20036;-73
2023/01/25 07:03:16;;;;;;;46.85;26.27;;;1.00;76.30;;;;;;5071357;28;20029;-74
2023/01/25 07:05:42;;;;;;;42.92;25.75;;;1.10;77.20;;;;;;5072547;28;20021;-73
2023/01/25 07:08:07;;;;;;;48.80;28.42;;;1.10;69.70;;;;;;5073897;28;20462;-73
2023/01/25 07:10:33;;;;;;;44.10;26.02;;;0.90;68.00;;;;;;5074300;28;20021;-74
2023/01/25 07:12:58;;;;;;;45.58;26.95;;;0.90;73.30;;;;;;5073186;28;20514;-74
2023/01/25 07:15:24;;;;;;;48.03;27.75;;;0.90;74.90;;;;;;5072529;28;20031;-74
2023/01/25 07:17:49;;;;;;;52.33;28.25;;;0.90;76.00;;;;;;5072804;28;20028;-72
2023/01/25 07:20:15;;;;;;;50.75;28.73;;;0.90;82.10;;;;;;5074771;28;20037;-75
2023/01/25 07:22:41;;;;;;;50.83;29.98;;;1.00;81.70;;;;;;5057190;28;20028;-72
2023/01/25 07:25:06;;;;;;;54.08;29.65;;;1.00;83.00;;;;;;5073610;28;20100;-71
2023/01/25 07:27:33;;;;;;;58.22;30.85;;;1.00;82.80;;;;;;5073470;28;20032;-74
2023/01/25 07:29:59;;;;;;;55.72;30.63;;;1.10;81.50;;;;;;5073142;28;20073;-74
2023/01/25 07:32:25;;;;;;;55.95;29.33;;;1.10;79.70;;;;;;5072570;28;20103;-74
2023/01/25 07:34:51;;;;;;;54.88;28.10;;;1.20;75.20;;;;;;5072427;28;20035;-74
2023/01/25 07:37:16;;;;;;;52.60;28.35;;;1.20;75.70;;;;;;5072694;28;20107;-72
2023/01/25 07:39:48;;;;;;;50.85;28.50;;;1.20;70.60;;;;;;5072965;28;20031;-74
2023/01/25 07:42:14;;;;;;;46.47;27.25;;;1.30;72.40;;;;;;5072835;28;20021;-74
2023/01/25 07:44:39;;;;;;;55.92;29.40;;;1.40;72.30;;;;;;5072957;28;20346;-73
2023/01/25 07:47:05;;;;;;;51.05;29.58;;;1.40;69.00;;;;;;5071761;28;20032;-73
2023/01/25 07:49:31;;;;;;;52.58;30.55;;;1.40;63.30;;;;;;5072844;28;20036;-73
2023/01/25 07:51:56;;;;;;;49.15;29.13;;;1.30;56.40;;;;;;5072594;28;20446;-74
2023/01/25 07:54:21;;;;;;;50.97;28.73;;;1.30;61.30;;;;;;5072043;28;20025;-74
2023/01/25 07:56:48;;;;;;;51.47;29.25;;;1.30;62.20;;;;;;5071603;28;20021;-75
2023/01/25 07:59:14;;;;;;;56.55;30.25;;;1.20;64.10;;;;;;5072546;28;20017;-74
2023/01/25 08:01:40;;;;;;;55.38;30.58;;;1.30;68.30;;;;;;5072161;28;20031;-74
2023/01/25 08:04:06;;;;;;;47.38;28.20;;;1.30;64.40;;;;;;5072100;28;20367;-72
2023/01/25 08:06:40;;;;;;;50.22;29.40;;;1.40;74.10;;;;;;5071231;28;20031;-72
2023/01/25 08:09:10;;;;;;;56.55;31.02;;;1.40;73.20;;;;;;5072247;28;20037;-70
2023/01/25 08:11:36;;;;;;;59.70;31.75;;;1.40;76.30;;;;;;5087538;22;20040;-75
2023/01/25 08:14:02;;;;;;;53.42;30.45;;;1.40;73.20;;;;;;5099451;28;20044;-76
2023/01/25 08:16:29;;;;;;;51.00;29.60;;;1.40;69.20;;;;;;5092628;28;20111;-75
2023/01/25 08:18:57;;;;;;;48.95;29.15;;;1.50;67.10;;;;;;5093906;28;20104;-75
2023/01/25 08:21:24;;;;;;;50.35;28.60;;;1.50;62.40;;;;;;5093894;28;20089;-74
2023/01/25 08:23:50;;;;;;;54.83;30.23;;;1.50;62.80;;;;;;5074216;28;20473;-75
2023/01/25 08:26:16;;;;;;;55.38;29.67;;;1.50;59.30;;;;;;5074630;28;20036;-77
2023/01/25 08:28:42;;;;;;;51.63;29.45;;;1.50;60.30;;;;;;5076470;28;20028;-76
2023/01/25 08:31:20;;;;;;;55.25;29.35;;;1.50;61.40;;;;;;5073345;28;20455;-76
2023/01/25 08:33:46;;;;;;;51.58;29.88;;;1.50;54.30;;;;;;5073877;28;20034;-77
2023/01/25 08:36:13;;;;;;;51.20;30.35;;;1.40;57.50;;;;;;5073481;28;20474;-77
2023/01/25 08:38:39;;;;;;;55.72;29.83;;;1.30;56.50;;;;;;5074154;28;20055;-76
2023/01/25 08:41:16;;;;;;;54.95;31.55;;;1.30;65.30;;;;;;5075255;28;20024;-75
2023/01/25 08:43:42;;;;;;;55.58;31.55;;;1.40;67.20;;;;;;5074647;28;20225;-74
2023/01/25 08:46:08;;;;;;;55.22;29.98;;;1.40;67.40;;;;;;5072181;28;20028;-77
2023/01/25 08:48:34;;;;;;;48.70;28.45;;;1.40;66.40;;;;;;5073714;28;20112;-76
2023/01/25 08:51:00;;;;;;;51.22;29.65;;;1.50;63.60;;;;;;5072927;28;20095;-76
2023/01/25 08:53:32;;;;;;;54.00;30.25;;;1.50;62.10;;;;;;5072126;28;20320;-76
2023/01/25 08:56:09;;;;;;;47.63;28.73;;;1.60;63.10;;;;;;5073925;28;20020;-75
2023/01/25 08:58:37;;;;;;;53.85;29.83;;;1.50;59.20;;;;;;5073595;28;20103;-75
2023/01/25 09:01:05;;;;;;;53.28;30.30;;;1.50;55.10;;;;;;5073971;28;20107;-75
2023/01/25 09:03:33;;;;;;;58.88;31.98;;;1.50;51.50;;;;;;5072637;28;20086;-76
2023/01/25 09:05:59;;;;;;;59.72;31.95;;;1.30;57.70;;;;;;5077282;28;20035;-76
2023/01/25 09:08:25;;;;;;;58.17;32.78;;;1.00;71.20;;;;;;5079454;28;20025;-75
2023/01/25 09:10:50;;;;;;;58.67;31.88;;;1.00;75.90;;;;;;5082180;28;20081;-75
2023/01/25 09:13:16;;;;;;;65.50;34.47;;;1.00;80.50;;;;;;5088534;28;20421;-76
2023/01/25 09:15:41;;;;;;;60.17;32.45;;;1.10;82.20;;;;;;5087282;28;20024;-76
2023/01/25 09:18:08;;;;;;;62.05;33.38;;;1.00;78.30;;;;;;5083395;28;20021;-76
2023/01/25 09:20:33;;;;;;;62.10;33.08;;;1.10;79.90;;;;;;5081708;28;20527;-75
2023/01/25 09:22:59;;;;;;;63.22;33.17;;;1.20;80.90;;;;;;5082273;28;20032;-75
2023/01/25 09:25:24;;;;;;;61.92;32.83;;;1.20;80.20;;;;;;5080109;28;20039;-77
2023/01/25 09:27:50;;;;;;;62.63;34.95;;;1.20;75.20;;;;;;5084620;28;20036;-76
2023/01/25 09:30:16;;;;;;;62.88;34.50;;;1.20;75.50;;;;;;5082022;28;20031;-78
2023/01/25 09:32:42;;;;;;;61.60;34.35;;;1.20;64.70;;;;;;5080182;28;20032;-75
2023/01/25 09:35:08;;;;;;;63.00;34.35;;;1.30;69.00;;;;;;5075410;28;20104;-76
2023/01/25 09:37:34;;;;;;;67.00;36.22;;;1.20;72.40;;;;;;5075904;28;20393;-75
2023/01/25 09:40:00;;;;;;;70.05;37.20;;;1.20;74.80;;;;;;5078709;28;20541;-75
2023/01/25 09:42:43;;;;;;;69.75;35.45;;;1.20;71.40;;;;;;5077204;28;20094;-76
2023/01/25 09:45:30;;;;;;;71.43;37.88;;;1.30;72.60;;;;;;5077198;28;20047;-77
2023/01/25 09:48:04;;;;;;;69.20;38.03;;;1.30;74.10;;;;;;5079901;28;20108;-76
2023/01/25 09:50:47;;;;;;;74.65;39.88;;;1.30;74.90;;;;;;5079110;28;20036;-76
2023/01/25 09:53:23;;;;;;;79.20;42.33;;;1.30;71.40;;;;;;5077376;28;20081;-75
2023/01/25 09:55:52;;;;;;;81.38;43.10;;;1.40;73.50;;;;;;5079752;28;20044;-76
2023/01/25 09:58:33;;;;;;;79.72;44.00;;;1.40;67.30;;;;;;5082100;28;20046;-76
2023/01/25 10:01:14;;;;;;;82.40;43.78;;;1.50;74.90;;;;;;5078736;28;20021;-76
2023/01/25 10:03:52;;;;;;;82.38;43.92;;;1.50;65.80;;;;;;5078949;28;20420;-76
2023/01/25 10:06:22;;;;;;;89.40;46.63;;;1.40;69.00;;;;;;5076928;28;20020;-76
2023/01/25 10:09:10;;;;;;;87.93;46.60;;;1.50;66.00;;;;;;5076268;28;20021;-75
2023/01/25 10:11:37;;;;;;;93.78;47.30;;;1.50;66.30;;;;;;5074857;28;20028;-76
2023/01/25 10:14:14;;;;;;;100.72;51.40;;;1.40;58.30;;;;;;5076763;28;20074;-75
2023/01/25 10:16:45;;;;;;;98.45;51.42;;;1.30;70.10;;;;;;5077162;28;20021;-78
2023/01/25 10:19:40;;;;;;;107.90;54.83;;;1.30;68.80;;;;;;5076164;28;20054;-76
2023/01/25 10:22:27;;;;;;;111.20;55.33;;;1.30;73.80;;;;;;5076325;28;20031;-75
2023/01/25 10:25:14;;;;;;;104.53;52.90;;;1.30;69.20;;;;;;5075773;28;20461;-76
2023/01/25 10:27:54;;;;;;;108.00;55.90;;;1.30;62.50;;;;;;5075689;28;20078;-77
2023/01/25 10:30:37;;;;;;;109.43;55.70;;;1.30;65.30;;;;;;5076303;28;20027;-76
2023/01/25 10:33:18;;;;;;;117.80;59.08;;;1.30;75.90;;;;;;5076084;28;20035;-75
2023/01/25 10:35:47;;;;;;;121.45;60.13;;;1.30;77.50;;;;;;5076649;28;20044;-76
2023/01/25 10:38:36;;;;;;;113.13;56.83;;;1.30;75.30;;;;;;5077095;28;20050;-77
2023/01/25 10:41:09;;;;;;;124.72;60.55;;;1.40;67.70;;;;;;5084848;28;20021;-76
2023/01/25 10:43:34;;;;;;;118.30;60.25;;;1.40;71.10;;;;;;5086012;28;20024;-75
2023/01/25 10:46:01;;;;;;;120.10;60.33;;;1.40;68.30;;;;;;5078698;28;20051;-76
2023/01/25 10:48:32;;;;;;;118.18;58.72;;;1.40;66.70;;;;;;5088755;28;20009;-74
2023/01/25 10:50:58;;;;;;;118.63;58.60;;;1.30;65.90;;;;;;5085041;28;20059;-77
2023/01/25 10:53:26;;;;;;;121.30;59.25;;;1.20;68.80;;;;;;5076719;28;20024;-77
2023/01/25 10:56:17;;;;;;;116.22;59.03;;;1.20;72.60;;;;;;5074617;28;20024;-75
2023/01/25 10:58:45;;;;;;;116.72;57.10;;;1.10;77.90;;;;;;5077948;28;20047;-75
2023/01/25 11:01:24;;;;;;;113.25;57.60;;;1.20;75.80;;;;;;5077604;28;20381;-75
2023/01/25 11:03:50;;;;;;;111.05;54.88;;;1.20;71.50;;;;;;5076860;28;20041;-75
2023/01/25 11:06:31;;;;;;;117.38;58.22;;;1.20;72.20;;;;;;5073936;28;20043;-76
2023/01/25 11:08:57;;;;;;;119.97;59.10;;;1.10;77.10;;;;;;5076040;28;20021;-76
2023/01/25 11:11:36;;;;;;;115.47;59.35;;;1.10;74.20;;;;;;5074852;28;20039;-76
2023/01/25 11:14:15;;;;;;;120.22;57.67;;;1.00;69.40;;;;;;5074303;28;20507;-75
2023/01/25 11:16:46;;;;;;;108.47;55.45;;;1.10;76.70;;;;;;5073282;28;20441;-77
2023/01/25 11:19:41;;;;;;;119.38;59.72;;;1.10;80.00;;;;;;5074070;28;20055;-76
2023/01/25 11:22:23;;;;;;;110.40;55.63;;;1.10;76.70;;;;;;5065041;28;20477;-75
2023/01/25 11:24:48;;;;;;;106.05;55.75;;;1.20;76.80;;;;;;5074612;28;20052;-75
2023/01/25 11:27:22;;;;;;;105.43;54.92;;;1.30;73.50;;;;;;5073341;28;20103;-74
2023/01/25 11:30:08;;;;;;;111.90;57.20;;;1.30;71.10;;;;;;5076825;28;20098;-75
2023/01/25 11:32:36;;;;;;;106.45;54.78;;;1.20;69.20;;;;;;5077121;28;20039;-75
2023/01/25 11:35:01;;;;;;;104.22;54.30;;;1.30;71.70;;;;;;5076056;28;20466;-75
2023/01/25 11:37:27;;;;;;;109.75;57.63;;;1.20;67.00;;;;;;5074225;28;20021;-75
2023/01/25 11:40:11;;;;;;;120.53;58.63;;;1.20;71.30;;;;;;5074461;28;20107;-76
2023/01/25 11:42:57;;;;;;;113.45;57.35;;;1.20;78.50;;;;;;5074361;28;20084;-76
2023/01/25 11:45:28;;;;;;;101.00;53.60;;;1.30;77.70;;;;;;5073316;28;20123;-76
2023/01/25 11:48:20;;;;;;;113.35;57.05;;;1.50;66.40;;;;;;5073345;28;20021;-76
2023/01/25 11:51:04;;;;;;;108.78;55.28;;;1.50;62.20;;;;;;5072522;28;20031;-76
2023/01/25 11:53:56;;;;;;;84.37;43.70;;;1.50;71.30;;;;;;5074292;28;20021;-75
2023/01/25 11:56:57;;;;;;;108.43;56.70;;;1.60;67.70;;;;;;5071065;28;20139;-76
2023/01/25 11:59:42;;;;;;;108.32;55.60;;;1.60;60.90;;;;;;5073421;28;20047;-75
2023/01/25 12:02:34;;;;;;;102.05;53.35;;;1.60;57.40;;;;;;5066885;28;20634;-76
2023/01/25 12:05:38;;;;;;;97.43;50.53;;;1.60;55.80;;;;;;5074654;28;20028;-75
2023/01/25 12:08:41;;;;;;;109.28;53.45;;;1.50;55.20;;;;;;5074433;28;20025;-75
2023/01/25 12:11:32;;;;;;;102.85;53.92;;;1.50;53.80;;;;;;5074375;28;20036;-76
2023/01/25 12:14:40;;;;;;;102.55;52.63;;;1.40;63.20;;;;;;5074984;28;20033;-76
2023/01/25 12:17:32;;;;;;;105.47;51.22;;;1.50;62.50;;;;;;5072991;28;20052;-75
2023/01/25 12:20:18;;;;;;;96.57;50.72;;;1.50;64.90;;;;;;5074574;28;20443;-75
2023/01/25 12:22:55;;;;;;;97.95;51.33;;;1.50;55.30;;;;;;5073956;28;20035;-76
2023/01/25 12:25:40;;;;;;;100.68;51.50;;;1.60;57.30;;;;;;5073368;28;20456;-76
2023/01/25 12:28:11;;;;;;;93.75;51.10;;;1.50;55.60;;;;;;5074542;28;20103;-75
2023/01/25 12:30:51;;;;;;;98.00;49.78;;;1.50;55.90;;;;;;5077792;28;20028;-76
2023/01/25 12:33:31;;;;;;;103.10;52.88;;;1.50;53.10;;;;;;5077909;28;20490;-75
2023/01/25 12:36:20;;;;;;;99.95;52.67;;;1.50;61.60;;;;;;5074346;28;20016;-75
2023/01/25 12:39:05;;;;;;;94.45;48.90;;;1.50;58.60;;;;;;5076800;28;20016;-75
2023/01/25 12:41:50;;;;;;;98.00;49.88;;;1.50;62.80;;;;;;5078071;28;20469;-75
2023/01/25 12:44:23;;;;;;;100.05;50.17;;;1.50;54.00;;;;;;5080493;28;20499;-75
2023/01/25 12:47:15;;;;;;;105.63;49.75;;;1.40;54.40;;;;;;5076378;28;20032;-75
2023/01/25 12:50:07;;;;;;;102.65;51.00;;;1.50;63.20;;;;;;5073526;28;20058;-76
2023/01/25 12:52:36;;;;;;;97.00;50.67;;;1.50;67.40;;;;;;5072994;28;20024;-75